Time;durP1;ratioP1;P1;durP2;ratioP2;P2;SDS_P1;SDS_P2;PMS_P1;PMS_P2;Temp;Humidity;BMP_temperature;BMP_pressure;BME280_temperature;BME280_humidity;BME280_pressure;Samples;Min_cycle;Max_cycle;Signal;HPM_P1;HPM_P2
2023/04/30 00:00:50;;;;;;;19.55;14.15;;;;;;;;;;4991944;28;20378;-72
2023/04/30 00:03:16;;;;;;;20.00;14.75;;;;;;;;;;4991578;28;20030;-73
2023/04/30 00:05:42;;;;;;;18.88;14.77;;;;;;;;;;4974385;28;20029;-72
2023/04/30 00:08:08;;;;;;;19.73;13.70;;;;;;;;;;4991912;28;20378;-73
2023/04/30 00:10:34;;;;;;;21.17;15.50;;;;;;;;;;4991820;28;20489;-72
2023/04/30 00:13:00;;;;;;;20.40;14.52;;;;;;;;;;4991759;28;20022;-72
2023/04/30 00:15:26;;;;;;;18.80;14.30;;;;;;;;;;4991759;28;20567;-73
2023/04/30 00:17:52;;;;;;;18.67;14.73;;;;;;;;;;4991279;28;20053;-72
2023/04/30 00:20:18;;;;;;;18.50;14.50;;;;;;;;;;4991840;28;20061;-73
2023/04/30 00:22:44;;;;;;;20.52;14.30;;;;;;;;;;5019694;23;20050;-72
2023/04/30 00:25:10;;;;;;;22.92;14.95;;;;;;;;;;4991005;28;20531;-73
2023/04/30 00:27:36;;;;;;;22.17;14.70;;;;;;;;;;4991791;28;20022;-73
2023/04/30 00:30:02;;;;;;;19.02;13.68;;;;;;;;;;4991824;28;20027;-73
2023/04/30 00:32:28;;;;;;;16.98;12.30;;;;;;;;;;4991669;28;20047;-73
2023/04/30 00:34:54;;;;;;;13.48;10.43;;;;;;;;;;4991771;28;20022;-73
2023/04/30 00:37:20;;;;;;;17.20;11.07;;;;;;;;;;4991665;28;20035;-73
2023/04/30 00:39:46;;;;;;;16.10;11.15;;;;;;;;;;4991568;28;20389;-73
2023/04/30 00:42:12;;;;;;;15.40;10.40;;;;;;;;;;4976917;28;20057;-72
2023/04/30 00:44:38;;;;;;;17.63;10.85;;;;;;;;;;4995493;28;20388;-73
2023/04/30 00:47:04;;;;;;;19.33;11.38;;;;;;;;;;4995380;28;20026;-71
2023/04/30 00:49:30;;;;;;;14.05;10.80;;;;;;;;;;4995232;28;20507;-73
2023/04/30 00:51:56;;;;;;;15.23;9.88;;;;;;;;;;4995362;28;20034;-73
2023/04/30 00:54:22;;;;;;;15.85;10.80;;;;;;;;;;4995346;28;20022;-73
2023/04/30 00:56:48;;;;;;;18.20;10.95;;;;;;;;;;4977759;28;20478;-73
2023/04/30 00:59:15;;;;;;;16.30;10.35;;;;;;;;;;4995324;28;20034;-74
2023/04/30 01:01:41;;;;;;;14.55;10.77;;;;;;;;;;4995454;28;20404;-73
2023/04/30 01:04:07;;;;;;;13.00;10.70;;;;;;;;;;4977734;28;20113;-73
2023/04/30 01:06:33;;;;;;;16.48;10.82;;;;;;;;;;4994095;28;20037;-73
2023/04/30 01:09:00;;;;;;;15.20;11.35;;;;;;;;;;4994288;28;20104;-73
2023/04/30 01:11:32;;;;;;;14.13;10.57;;;;;;;;;;4994965;28;20166;-73
2023/04/30 01:14:08;;;;;;;15.35;10.60;;;;;;;;;;4995203;28;20030;-73
2023/04/30 01:16:40;;;;;;;15.07;11.13;;;;;;;;;;4989295;28;20022;-73
2023/04/30 01:19:17;;;;;;;14.35;11.95;;;;;;;;;;4994561;28;20090;-73
2023/04/30 01:21:43;;;;;;;14.82;12.02;;;;;;;;;;4978669;28;20026;-74
2023/04/30 01:24:09;;;;;;;16.23;11.90;;;;;;;;;;4994691;28;20037;-74
2023/04/30 01:26:54;;;;;;;15.88;12.70;;;;;;;;;;4994721;28;20114;-73
2023/04/30 01:29:21;;;;;;;16.35;12.65;;;;;;;;;;4994537;28;20026;-73
2023/04/30 01:31:47;;;;;;;18.63;14.18;;;;;;;;;;4994377;28;20065;-73
2023/04/30 01:34:13;;;;;;;15.77;13.63;;;;;;;;;;4994782;28;20050;-73
2023/04/30 01:36:58;;;;;;;23.63;15.98;;;;;;;;;;4994394;28;20094;-73
2023/04/30 01:39:24;;;;;;;20.00;16.48;;;;;;;;;;4994430;28;20104;-73
2023/04/30 01:41:57;;;;;;;22.10;16.40;;;;;;;;;;4994641;28;20046;-73
2023/04/30 01:44:26;;;;;;;22.38;15.20;;;;;;;;;;4994487;28;20033;-73
2023/04/30 01:46:58;;;;;;;21.70;15.57;;;;;;;;;;4994336;28;20030;-74
2023/04/30 01:49:24;;;;;;;22.40;15.65;;;;;;;;;;4994194;28;20030;-74
2023/04/30 01:51:54;;;;;;;19.55;14.90;;;;;;;;;;4994016;28;20046;-73
2023/04/30 01:54:30;;;;;;;19.53;16.43;;;;;;;;;;4994555;28;20106;-73
2023/04/30 01:57:13;;;;;;;18.35;14.65;;;;;;;;;;4991956;28;20033;-74
2023/04/30 01:59:39;;;;;;;16.60;13.85;;;;;;;;;;4992388;28;20022;-74
2023/04/30 02:02:06;;;;;;;19.17;14.45;;;;;;;;;;4993653;28;20117;-74
2023/04/30 02:04:32;;;;;;;22.63;13.98;;;;;;;;;;4994276;28;20041;-74
2023/04/30 02:06:58;;;;;;;19.75;14.15;;;;;;;;;;4993853;28;20070;-73
2023/04/30 02:09:24;;;;;;;18.17;11.80;;;;;;;;;;4994067;28;20372;-74
2023/04/30 02:11:50;;;;;;;14.88;12.32;;;;;;;;;;4994133;28;20160;-74
2023/04/30 02:14:16;;;;;;;16.90;12.43;;;;;;;;;;4994096;28;20027;-73
2023/04/30 02:16:42;;;;;;;18.77;12.05;;;;;;;;;;4986383;28;20026;-73
2023/04/30 02:19:08;;;;;;;14.95;10.52;;;;;;;;;;4993674;28;20030;-74
2023/04/30 02:21:34;;;;;;;14.02;11.88;;;;;;;;;;4993705;28;20034;-73
2023/04/30 02:24:00;;;;;;;14.85;11.13;;;;;;;;;;4994714;28;20168;-73
2023/04/30 02:26:26;;;;;;;16.73;10.45;;;;;;;;;;4995450;28;20031;-73
2023/04/30 02:28:52;;;;;;;13.68;9.68;;;;;;;;;;4997268;28;20560;-73
2023/04/30 02:31:18;;;;;;;18.08;10.77;;;;;;;;;;4997418;28;20030;-73
2023/04/30 02:33:44;;;;;;;14.98;9.85;;;;;;;;;;4977141;28;20400;-74
2023/04/30 02:36:10;;;;;;;15.13;9.00;;;;;;;;;;4993441;28;20022;-74
2023/04/30 02:38:37;;;;;;;16.15;9.60;;;;;;;;;;4993383;28;20034;-74
2023/04/30 02:41:03;;;;;;;12.35;9.32;;;;;;;;;;4993252;28;20051;-73
2023/04/30 02:43:29;;;;;;;13.93;8.95;;;;;;;;;;4975841;28;20527;-73
2023/04/30 02:45:55;;;;;;;15.10;9.13;;;;;;;;;;4993664;28;20037;-73
2023/04/30 02:48:21;;;;;;;13.80;9.13;;;;;;;;;;4993286;28;20097;-73
2023/04/30 02:50:47;;;;;;;12.95;9.45;;;;;;;;;;4992982;28;20077;-73
2023/04/30 02:53:13;;;;;;;14.02;8.30;;;;;;;;;;4993338;28;20038;-73
2023/04/30 02:55:39;;;;;;;13.35;8.38;;;;;;;;;;4993047;28;20052;-73
2023/04/30 02:58:05;;;;;;;14.55;8.95;;;;;;;;;;4992827;28;20019;-73
2023/04/30 03:00:31;;;;;;;10.75;8.32;;;;;;;;;;4993310;28;20034;-72
2023/04/30 03:02:57;;;;;;;12.73;8.40;;;;;;;;;;4993255;28;20076;-72
2023/04/30 03:05:23;;;;;;;12.23;7.90;;;;;;;;;;4992457;28;20034;-74
2023/04/30 03:07:49;;;;;;;13.05;8.25;;;;;;;;;;4992973;28;20018;-73
2023/04/30 03:10:17;;;;;;;11.32;8.02;;;;;;;;;;4993010;28;20149;-75
2023/04/30 03:12:43;;;;;;;12.48;8.38;;;;;;;;;;4992782;28;20033;-72
2023/04/30 03:15:10;;;;;;;12.80;8.75;;;;;;;;;;4992639;28;20022;-73
2023/04/30 03:17:36;;;;;;;14.10;8.25;;;;;;;;;;4992478;28;20037;-73
2023/04/30 03:20:02;;;;;;;12.82;8.43;;;;;;;;;;4992475;28;20467;-73
2023/04/30 03:22:28;;;;;;;10.93;8.30;;;;;;;;;;4992542;28;20378;-73
2023/04/30 03:24:54;;;;;;;11.32;8.25;;;;;;;;;;4992564;28;20500;-73
2023/04/30 03:27:20;;;;;;;11.23;9.02;;;;;;;;;;4992411;28;20023;-73
2023/04/30 03:29:47;;;;;;;15.70;9.20;;;;;;;;;;4992580;28;20477;-73
2023/04/30 03:32:13;;;;;;;14.80;8.90;;;;;;;;;;4992433;28;20030;-73
2023/04/30 03:34:39;;;;;;;10.90;8.07;;;;;;;;;;4974910;28;20121;-73
2023/04/30 03:37:05;;;;;;;15.40;9.65;;;;;;;;;;4992252;28;20479;-72
2023/04/30 03:39:31;;;;;;;14.30;9.07;;;;;;;;;;4992231;28;20054;-73
2023/04/30 03:41:57;;;;;;;15.85;9.98;;;;;;;;;;4992192;28;20037;-73
2023/04/30 03:44:23;;;;;;;14.73;8.55;;;;;;;;;;4991359;28;20019;-74
2023/04/30 03:46:49;;;;;;;11.75;7.45;;;;;;;;;;4991931;28;20105;-74
2023/04/30 03:49:15;;;;;;;11.35;8.68;;;;;;;;;;4991734;28;20049;-74
2023/04/30 03:51:41;;;;;;;11.23;8.30;;;;;;;;;;4992109;28;20118;-74
2023/04/30 03:54:07;;;;;;;11.02;8.15;;;;;;;;;;4979809;28;20018;-74
2023/04/30 03:56:37;;;;;;;10.65;8.07;;;;;;;;;;4992307;28;20028;-73
2023/04/30 03:59:03;;;;;;;9.98;7.35;;;;;;;;;;4992172;28;20019;-73
2023/04/30 04:01:29;;;;;;;13.57;8.35;;;;;;;;;;4991945;28;20022;-73
2023/04/30 04:03:55;;;;;;;12.02;8.07;;;;;;;;;;4992092;28;20033;-73
2023/04/30 04:06:21;;;;;;;12.18;7.88;;;;;;;;;;4998301;28;20026;-74
2023/04/30 04:08:47;;;;;;;12.23;7.90;;;;;;;;;;4991858;28;20516;-74
2023/04/30 04:11:13;;;;;;;12.82;7.10;;;;;;;;;;4991939;28;20026;-73
2023/04/30 04:13:40;;;;;;;9.05;6.55;;;;;;;;;;4991884;28;20034;-74
2023/04/30 04:16:07;;;;;;;10.32;6.68;;;;;;;;;;4992950;28;20413;-74
2023/04/30 04:18:33;;;;;;;10.20;6.18;;;;;;;;;;4995555;28;20023;-74
2023/04/30 04:21:00;;;;;;;8.93;6.10;;;;;;;;;;4978264;28;20049;-74
2023/04/30 04:23:26;;;;;;;8.40;5.72;;;;;;;;;;4996048;28;20034;-74
2023/04/30 04:25:52;;;;;;;11.10;5.95;;;;;;;;;;4978484;28;20088;-74
2023/04/30 04:28:18;;;;;;;9.75;5.15;;;;;;;;;;4995491;28;20061;-74
2023/04/30 04:30:44;;;;;;;7.00;4.75;;;;;;;;;;4995773;28;20511;-74
2023/04/30 04:33:11;;;;;;;8.45;4.75;;;;;;;;;;4995548;28;20027;-74
2023/04/30 04:35:37;;;;;;;5.53;3.45;;;;;;;;;;4995949;28;20022;-74
2023/04/30 04:38:03;;;;;;;9.30;3.92;;;;;;;;;;4978060;28;20606;-74
2023/04/30 04:40:29;;;;;;;8.15;4.30;;;;;;;;;;4995768;28;20109;-74
2023/04/30 04:42:55;;;;;;;7.43;4.30;;;;;;;;;;4995468;28;20034;-74
2023/04/30 04:45:22;;;;;;;5.53;3.50;;;;;;;;;;4995472;28;20026;-74
2023/04/30 04:47:48;;;;;;;6.78;3.85;;;;;;;;;;4995155;28;20041;-74
2023/04/30 04:50:14;;;;;;;4.25;3.25;;;;;;;;;;4995499;28;20488;-75
2023/04/30 04:52:40;;;;;;;8.02;3.75;;;;;;;;;;4995281;28;20026;-74
2023/04/30 04:55:06;;;;;;;5.97;3.58;;;;;;;;;;4994287;28;20019;-74
2023/04/30 04:57:33;;;;;;;6.22;3.67;;;;;;;;;;4977657;28;20026;-74
2023/04/30 04:59:59;;;;;;;5.30;3.38;;;;;;;;;;4995082;28;20503;-74
2023/04/30 05:02:25;;;;;;;3.88;2.80;;;;;;;;;;4990016;28;20062;-74
2023/04/30 05:04:51;;;;;;;5.13;3.03;;;;;;;;;;4988188;28;20030;-74
2023/04/30 05:07:17;;;;;;;7.63;3.25;;;;;;;;;;4994985;28;20035;-74
2023/04/30 05:09:46;;;;;;;5.80;3.30;;;;;;;;;;4979063;28;20026;-74
2023/04/30 05:12:13;;;;;;;4.82;3.05;;;;;;;;;;4993808;28;20022;-74
2023/04/30 05:14:39;;;;;;;6.55;3.20;;;;;;;;;;4994852;28;20037;-74
2023/04/30 05:17:05;;;;;;;6.38;3.47;;;;;;;;;;4994853;28;20030;-74
2023/04/30 05:19:31;;;;;;;7.95;3.83;;;;;;;;;;4994814;28;20026;-74
2023/04/30 05:22:00;;;;;;;5.30;3.05;;;;;;;;;;4994713;28;20488;-73
2023/04/30 05:24:26;;;;;;;4.80;3.15;;;;;;;;;;4994767;28;20030;-74
2023/04/30 05:26:52;;;;;;;5.90;3.05;;;;;;;;;;4994256;28;20034;-74
2023/04/30 05:29:18;;;;;;;4.55;3.15;;;;;;;;;;4983469;28;20097;-74
2023/04/30 05:31:44;;;;;;;6.28;3.58;;;;;;;;;;4994495;28;20014;-74
2023/04/30 05:34:10;;;;;;;6.40;3.25;;;;;;;;;;4994800;28;20049;-74
2023/04/30 05:36:36;;;;;;;6.07;2.95;;;;;;;;;;4994630;28;20093;-73
2023/04/30 05:39:02;;;;;;;6.10;3.20;;;;;;;;;;4994254;28;20484;-74
2023/04/30 05:41:28;;;;;;;8.23;3.35;;;;;;;;;;4994406;28;20026;-73
2023/04/30 05:43:54;;;;;;;4.65;3.00;;;;;;;;;;4994397;28;20037;-74
2023/04/30 05:46:20;;;;;;;8.73;3.05;;;;;;;;;;4994474;28;20105;-74
2023/04/30 05:48:47;;;;;;;8.27;3.75;;;;;;;;;;4994213;28;20559;-74
2023/04/30 05:51:13;;;;;;;6.65;3.08;;;;;;;;;;4994233;28;20053;-74
2023/04/30 05:53:39;;;;;;;6.18;3.20;;;;;;;;;;4976674;28;20054;-74
2023/04/30 05:56:05;;;;;;;6.97;3.35;;;;;;;;;;4994227;28;20093;-74
2023/04/30 05:58:31;;;;;;;8.23;3.25;;;;;;;;;;4993904;28;20437;-74
2023/04/30 06:00:58;;;;;;;5.70;2.88;;;;;;;;;;4994167;28;20021;-73
2023/04/30 06:03:24;;;;;;;6.88;3.72;;;;;;;;;;4994268;28;20030;-74
2023/04/30 06:05:50;;;;;;;5.05;2.45;;;;;;;;;;4994267;28;20026;-74
2023/04/30 06:08:16;;;;;;;8.15;2.75;;;;;;;;;;4994004;28;20022;-73
2023/04/30 06:10:42;;;;;;;7.88;3.30;;;;;;;;;;4993993;28;20031;-74
2023/04/30 06:13:08;;;;;;;6.03;3.08;;;;;;;;;;4993751;28;20489;-75
2023/04/30 06:15:34;;;;;;;5.40;2.45;;;;;;;;;;4976377;28;20551;-75
2023/04/30 06:18:00;;;;;;;10.75;2.72;;;;;;;;;;4993710;28;20033;-75
2023/04/30 06:20:27;;;;;;;6.75;3.70;;;;;;;;;;4994142;28;20051;-75
2023/04/30 06:22:53;;;;;;;6.82;2.78;;;;;;;;;;5019983;23;20062;-72
2023/04/30 06:25:19;;;;;;;6.68;2.90;;;;;;;;;;5012698;28;20029;-72
2023/04/30 06:27:45;;;;;;;4.78;3.05;;;;;;;;;;5013123;28;20041;-72
2023/04/30 06:30:12;;;;;;;5.88;2.90;;;;;;;;;;5013472;28;20097;-73
2023/04/30 06:32:38;;;;;;;6.20;2.92;;;;;;;;;;5013258;28;20103;-73
2023/04/30 06:35:04;;;;;;;8.02;2.80;;;;;;;;;;5013749;28;20673;-73
2023/04/30 06:37:36;;;;;;;5.75;2.58;;;;;;;;;;5013735;28;20160;-72
2023/04/30 06:40:02;;;;;;;6.57;3.45;;;;;;;;;;5012613;28;20034;-73
2023/04/30 06:42:33;;;;;;;6.13;3.22;;;;;;;;;;4995645;28;20388;-72
2023/04/30 06:45:00;;;;;;;10.10;3.50;;;;;;;;;;5012882;28;20499;-72
2023/04/30 06:47:26;;;;;;;6.28;3.30;;;;;;;;;;5012612;28;20030;-72
2023/04/30 06:49:52;;;;;;;5.55;3.08;;;;;;;;;;5012951;28;20026;-73
2023/04/30 06:52:18;;;;;;;6.43;3.22;;;;;;;;;;4995008;28;20036;-72
2023/04/30 06:54:44;;;;;;;5.70;3.22;;;;;;;;;;5012639;28;20491;-75
2023/04/30 06:57:11;;;;;;;7.28;3.28;;;;;;;;;;5012566;28;20018;-75
2023/04/30 06:59:38;;;;;;;6.72;3.55;;;;;;;;;;5012632;28;20034;-72
2023/04/30 07:02:04;;;;;;;7.35;3.47;;;;;;;;;;5012457;28;20018;-72
2023/04/30 07:04:30;;;;;;;7.30;3.40;;;;;;;;;;5012551;28;20018;-72
2023/04/30 07:06:56;;;;;;;8.45;3.00;;;;;;;;;;5012508;28;20476;-72
2023/04/30 07:09:22;;;;;;;7.80;3.25;;;;;;;;;;5011874;28;20037;-71
2023/04/30 07:11:49;;;;;;;8.05;3.00;;;;;;;;;;5012340;28;20028;-72
2023/04/30 07:14:15;;;;;;;4.25;2.38;;;;;;;;;;5012320;28;20025;-72
2023/04/30 07:16:41;;;;;;;7.65;3.13;;;;;;;;;;5012385;28;20416;-72
2023/04/30 07:19:06;;;;;;;7.63;3.28;;;;;;;;;;4994518;28;20018;-72
2023/04/30 07:21:32;;;;;;;12.48;3.45;;;;;;;;;;5012362;28;20161;-74
2023/04/30 07:23:58;;;;;;;8.20;3.15;;;;;;;;;;5012316;28;20628;-73
2023/04/30 07:26:25;;;;;;;10.10;3.63;;;;;;;;;;5013724;28;20141;-71
2023/04/30 07:28:51;;;;;;;6.50;3.17;;;;;;;;;;5013380;28;20081;-72
2023/04/30 07:31:18;;;;;;;6.82;3.75;;;;;;;;;;5013581;28;20036;-72
2023/04/30 07:33:44;;;;;;;9.77;3.17;;;;;;;;;;5014298;28;20026;-71
2023/04/30 07:36:10;;;;;;;7.00;2.90;;;;;;;;;;4994754;28;20025;-72
2023/04/30 07:38:36;;;;;;;4.75;3.38;;;;;;;;;;4995114;28;20037;-72
2023/04/30 07:41:03;;;;;;;7.28;3.35;;;;;;;;;;5012486;28;20029;-72
2023/04/30 07:43:29;;;;;;;5.20;3.30;;;;;;;;;;4994235;28;20021;-72
2023/04/30 07:45:56;;;;;;;10.40;3.90;;;;;;;;;;5011611;28;20116;-72
2023/04/30 07:48:22;;;;;;;7.82;3.42;;;;;;;;;;4994060;28;20463;-71
2023/04/30 07:50:48;;;;;;;7.45;3.22;;;;;;;;;;5011431;28;20370;-72
2023/04/30 07:53:14;;;;;;;5.75;3.25;;;;;;;;;;5010034;28;20017;-71
2023/04/30 07:55:40;;;;;;;9.52;4.00;;;;;;;;;;5011339;28;20018;-71
2023/04/30 07:58:06;;;;;;;9.00;3.47;;;;;;;;;;5011003;28;20107;-74
2023/04/30 08:00:32;;;;;;;6.60;3.13;;;;;;;;;;5011533;28;20815;-72
2023/04/30 08:02:59;;;;;;;7.63;3.50;;;;;;;;;;5011396;28;20508;-71
2023/04/30 08:05:25;;;;;;;8.75;3.72;;;;;;;;;;5011412;28;20476;-72
2023/04/30 08:07:51;;;;;;;8.18;3.58;;;;;;;;;;4993059;28;20037;-72
2023/04/30 08:10:17;;;;;;;8.43;4.28;;;;;;;;;;4979317;28;20026;-71
2023/04/30 08:12:44;;;;;;;6.75;3.33;;;;;;;;;;4999605;28;20116;-72
2023/04/30 08:15:10;;;;;;;11.95;3.70;;;;;;;;;;4996750;28;20050;-72
2023/04/30 08:17:37;;;;;;;8.35;3.60;;;;;;;;;;5010074;28;20500;-72
2023/04/30 08:20:03;;;;;;;8.95;3.35;;;;;;;;;;5010140;28;20076;-71
2023/04/30 08:22:30;;;;;;;9.60;3.90;;;;;;;;;;5011052;28;20034;-71
2023/04/30 08:24:56;;;;;;;6.70;3.25;;;;;;;;;;5011269;28;20506;-72
2023/04/30 08:27:22;;;;;;;8.70;2.95;;;;;;;;;;5011088;28;20084;-71
2023/04/30 08:29:48;;;;;;;7.00;3.30;;;;;;;;;;5011327;28;20022;-73
2023/04/30 08:32:14;;;;;;;11.90;3.60;;;;;;;;;;5011200;28;20030;-73
2023/04/30 08:34:42;;;;;;;7.15;2.90;;;;;;;;;;5011359;28;20026;-73
2023/04/30 08:37:08;;;;;;;8.02;3.70;;;;;;;;;;5011047;28;20037;-72
2023/04/30 08:39:34;;;;;;;7.57;3.40;;;;;;;;;;5011170;28;20022;-72
2023/04/30 08:42:02;;;;;;;5.93;3.10;;;;;;;;;;5011154;28;20053;-72
2023/04/30 08:44:29;;;;;;;7.68;3.50;;;;;;;;;;5011366;28;20110;-72
2023/04/30 08:46:57;;;;;;;7.53;3.05;;;;;;;;;;5011198;28;20022;-72
2023/04/30 08:49:24;;;;;;;5.43;2.83;;;;;;;;;;5011283;28;20033;-72
2023/04/30 08:51:50;;;;;;;7.40;3.63;;;;;;;;;;5009592;28;20423;-72
2023/04/30 08:54:17;;;;;;;10.98;3.53;;;;;;;;;;4999499;28;20022;-72
2023/04/30 08:56:44;;;;;;;8.68;4.07;;;;;;;;;;5009870;28;20441;-72
2023/04/30 08:59:11;;;;;;;7.50;3.47;;;;;;;;;;4992888;28;20393;-72
2023/04/30 09:01:37;;;;;;;9.82;3.60;;;;;;;;;;5011093;28;20458;-72
2023/04/30 09:04:04;;;;;;;7.65;3.45;;;;;;;;;;4995262;28;20124;-72
2023/04/30 09:06:30;;;;;;;9.20;2.92;;;;;;;;;;5011912;28;20029;-72
2023/04/30 09:08:56;;;;;;;10.48;3.30;;;;;;;;;;5012715;28;20022;-73
2023/04/30 09:11:22;;;;;;;6.88;3.05;;;;;;;;;;5012730;28;20053;-72
2023/04/30 09:13:51;;;;;;;6.95;3.08;;;;;;;;;;5012701;28;20103;-73
2023/04/30 09:16:17;;;;;;;9.00;3.10;;;;;;;;;;5001133;28;20049;-72
2023/04/30 09:18:43;;;;;;;6.53;3.28;;;;;;;;;;5013446;28;20480;-73
2023/04/30 09:21:09;;;;;;;6.68;2.97;;;;;;;;;;5014213;28;20556;-73
2023/04/30 09:23:35;;;;;;;6.78;3.40;;;;;;;;;;5013827;28;20030;-72
2023/04/30 09:26:01;;;;;;;6.00;3.10;;;;;;;;;;5014520;28;20105;-73
2023/04/30 09:28:28;;;;;;;5.15;2.78;;;;;;;;;;4996315;28;20033;-72
2023/04/30 09:30:56;;;;;;;7.20;2.63;;;;;;;;;;5014415;28;20022;-72
2023/04/30 09:33:22;;;;;;;9.23;3.30;;;;;;;;;;4997286;28;20040;-71
2023/04/30 09:35:48;;;;;;;7.95;2.75;;;;;;;;;;5014817;28;20026;-72
2023/04/30 09:38:30;;;;;;;7.18;3.17;;;;;;;;;;4996924;28;20018;-72
2023/04/30 09:40:56;;;;;;;;;;;;;;;;;;5014682;28;20022;-73
2023/04/30 09:43:22;;;;;;;6.47;2.50;;;;;;;;;;5014009;28;19912;-73
2023/04/30 09:45:51;;;;;;;7.85;3.58;;;;;;;;;;5014154;28;20069;-72
2023/04/30 09:48:26;;;;;;;6.50;2.88;;;;;;;;;;5013696;28;20022;-73
2023/04/30 09:50:52;;;;;;;5.80;3.10;;;;;;;;;;5014138;28;20057;-72
2023/04/30 09:53:18;;;;;;;5.97;3.08;;;;;;;;;;4996114;28;20030;-72
2023/04/30 09:55:47;;;;;;;6.82;3.00;;;;;;;;;;5013898;28;20030;-72
2023/04/30 09:58:15;;;;;;;5.20;3.00;;;;;;;;;;5013589;28;20485;-72
2023/04/30 10:00:42;;;;;;;8.80;3.00;;;;;;;;;;4996283;28;20017;-72
2023/04/30 10:03:09;;;;;;;7.00;2.95;;;;;;;;;;4996020;28;20026;-73
2023/04/30 10:05:45;;;;;;;5.90;2.90;;;;;;;;;;5014039;28;20057;-72
2023/04/30 10:08:18;;;;;;;9.45;2.85;;;;;;;;;;5013204;28;20030;-72
2023/04/30 10:10:45;;;;;;;9.48;3.20;;;;;;;;;;4995863;28;20053;-72
2023/04/30 10:13:17;;;;;;;4.63;2.80;;;;;;;;;;5013288;28;20026;-72
2023/04/30 10:15:48;;;;;;;8.13;3.05;;;;;;;;;;5011647;28;20021;-71
2023/04/30 10:18:26;;;;;;;7.65;2.90;;;;;;;;;;5013592;28;20050;-72
2023/04/30 10:20:53;;;;;;;16.17;3.63;;;;;;;;;;5013538;28;20513;-72
2023/04/30 10:23:20;;;;;;;6.60;2.72;;;;;;;;;;5012917;28;20071;-72
2023/04/30 10:25:47;;;;;;;8.07;3.85;;;;;;;;;;5013284;28;20021;-72
2023/04/30 10:28:13;;;;;;;7.25;3.08;;;;;;;;;;5012911;28;20026;-72
2023/04/30 10:30:42;;;;;;;10.30;3.58;;;;;;;;;;5013258;28;20373;-71
2023/04/30 10:33:14;;;;;;;6.82;3.00;;;;;;;;;;5012773;28;20028;-72
2023/04/30 10:35:53;;;;;;;4.47;2.63;;;;;;;;;;5013036;28;20022;-72
2023/04/30 10:38:27;;;;;;;7.70;2.80;;;;;;;;;;5012614;28;20022;-72
2023/04/30 10:41:00;;;;;;;9.98;4.93;;;;;;;;;;5013047;28;20037;-71
2023/04/30 10:43:26;;;;;;;8.57;3.60;;;;;;;;;;5012978;28;20022;-72
2023/04/30 10:45:53;;;;;;;8.40;3.05;;;;;;;;;;5012998;28;20092;-72
2023/04/30 10:48:25;;;;;;;11.95;3.17;;;;;;;;;;4994918;28;20029;-72
2023/04/30 10:50:52;;;;;;;5.78;3.10;;;;;;;;;;5012499;28;20404;-72
2023/04/30 10:53:19;;;;;;;6.45;2.88;;;;;;;;;;5012591;28;20026;-71
2023/04/30 10:55:52;;;;;;;7.13;2.80;;;;;;;;;;5012703;28;20057;-72
2023/04/30 10:58:33;;;;;;;6.78;2.92;;;;;;;;;;5012322;28;20026;-72
2023/04/30 11:01:03;;;;;;;6.78;3.40;;;;;;;;;;4995149;28;20062;-71
2023/04/30 11:03:29;;;;;;;5.50;3.15;;;;;;;;;;5012176;28;20034;-70
2023/04/30 11:05:55;;;;;;;47.75;26.45;;;;;;;;;;5012853;28;20054;-70
2023/04/30 11:08:34;;;;;;;15.05;7.82;;;;;;;;;;4994591;28;20026;-69
2023/04/30 11:11:01;;;;;;;11.68;4.85;;;;;;;;;;5012388;28;20033;-68
2023/04/30 11:13:27;;;;;;;21.52;10.95;;;;;;;;;;5012156;28;20025;-70
2023/04/30 11:15:53;;;;;;;98.82;60.95;;;;;;;;;;4997999;28;20072;-69
2023/04/30 11:18:19;;;;;;;9.88;4.28;;;;;;;;;;4994304;28;20447;-70
2023/04/30 11:20:52;;;;;;;16.85;9.07;;;;;;;;;;5012195;28;20022;-70
2023/04/30 11:23:23;;;;;;;22.80;14.15;;;;;;;;;;5012015;28;20040;-69
2023/04/30 11:25:49;;;;;;;5.15;3.00;;;;;;;;;;5012305;28;20029;-69
2023/04/30 11:28:20;;;;;;;23.67;14.85;;;;;;;;;;5011958;28;20508;-71
2023/04/30 11:30:56;;;;;;;46.53;25.98;;;;;;;;;;5012096;28;20443;-70
2023/04/30 11:33:22;;;;;;;9.88;5.18;;;;;;;;;;5011895;28;20521;-71
2023/04/30 11:35:51;;;;;;;9.35;4.72;;;;;;;;;;5012021;28;20018;-70
2023/04/30 11:38:18;;;;;;;15.02;9.07;;;;;;;;;;5011638;28;20495;-70
2023/04/30 11:40:43;;;;;;;14.95;8.13;;;;;;;;;;5011724;28;20030;-71
2023/04/30 11:43:30;;;;;;;20.25;10.82;;;;;;;;;;5011609;28;20022;-70
2023/04/30 11:46:16;;;;;;;6.35;2.97;;;;;;;;;;4979646;28;20048;-69
2023/04/30 11:48:43;;;;;;;8.07;3.00;;;;;;;;;;5011623;28;20492;-71
2023/04/30 11:51:19;;;;;;;12.65;3.92;;;;;;;;;;4994079;28;20041;-71
2023/04/30 11:53:46;;;;;;;13.60;3.25;;;;;;;;;;4995803;28;20076;-70
2023/04/30 11:56:12;;;;;;;6.65;2.78;;;;;;;;;;5011858;28;20054;-71
2023/04/30 11:58:39;;;;;;;8.38;4.75;;;;;;;;;;4993718;28;20337;-72
2023/04/30 12:01:08;;;;;;;10.90;5.57;;;;;;;;;;5011521;28;20735;-72
2023/04/30 12:03:41;;;;;;;15.07;5.63;;;;;;;;;;5011578;28;20492;-72
2023/04/30 12:06:09;;;;;;;5.97;3.25;;;;;;;;;;5011568;28;20030;-71
2023/04/30 12:08:35;;;;;;;8.73;3.80;;;;;;;;;;5011283;28;20442;-71
2023/04/30 12:11:01;;;;;;;11.77;5.57;;;;;;;;;;5011384;28;20030;-70
2023/04/30 12:13:27;;;;;;;6.57;3.38;;;;;;;;;;5011203;28;20030;-70
2023/04/30 12:15:58;;;;;;;7.57;3.20;;;;;;;;;;5011200;28;20500;-70
2023/04/30 12:18:25;;;;;;;7.57;2.77;;;;;;;;;;5010967;28;20171;-71
2023/04/30 12:20:51;;;;;;;7.57;3.35;;;;;;;;;;4993776;28;20025;-70
2023/04/30 12:23:17;;;;;;;7.93;3.60;;;;;;;;;;5012335;28;20496;-71
2023/04/30 12:25:43;;;;;;;6.78;3.33;;;;;;;;;;5012028;28;20480;-74
2023/04/30 12:28:10;;;;;;;7.68;3.00;;;;;;;;;;4993519;28;20044;-73
2023/04/30 12:30:36;;;;;;;4.20;2.30;;;;;;;;;;5011655;28;20037;-74
2023/04/30 12:33:02;;;;;;;10.07;3.13;;;;;;;;;;5010920;28;20034;-73
2023/04/30 12:35:30;;;;;;;5.63;2.53;;;;;;;;;;4993613;28;20116;-74
2023/04/30 12:38:03;;;;;;;7.28;2.75;;;;;;;;;;5013359;28;20108;-74
2023/04/30 12:40:29;;;;;;;5.38;2.78;;;;;;;;;;5015502;28;20030;-74
2023/04/30 12:43:06;;;;;;;7.75;2.22;;;;;;;;;;5015158;28;20030;-73
2023/04/30 12:45:43;;;;;;;7.05;2.35;;;;;;;;;;5015007;28;20030;-74
2023/04/30 12:48:09;;;;;;;5.43;2.88;;;;;;;;;;5014725;28;20026;-74
2023/04/30 12:50:35;;;;;;;5.60;2.75;;;;;;;;;;5014974;28;20034;-73
2023/04/30 12:53:02;;;;;;;7.15;2.70;;;;;;;;;;4997257;28;20037;-73
2023/04/30 12:55:29;;;;;;;8.23;2.85;;;;;;;;;;5016123;28;20101;-73
2023/04/30 12:58:13;;;;;;;5.40;2.47;;;;;;;;;;5015115;28;20392;-73
2023/04/30 13:00:49;;;;;;;5.00;2.88;;;;;;;;;;5015275;28;20080;-72
2023/04/30 13:03:16;;;;;;;7.38;2.85;;;;;;;;;;5015173;28;20036;-72
2023/04/30 13:05:45;;;;;;;4.88;2.60;;;;;;;;;;5014601;28;20038;-72
2023/04/30 13:08:13;;;;;;;6.20;2.38;;;;;;;;;;5014873;28;20028;-73
2023/04/30 13:10:38;;;;;;;5.05;2.30;;;;;;;;;;5017203;28;20516;-72
2023/04/30 13:13:05;;;;;;;6.05;2.78;;;;;;;;;;5017775;28;20036;-72
2023/04/30 13:15:31;;;;;;;6.00;2.30;;;;;;;;;;5004163;28;20033;-72
2023/04/30 13:17:57;;;;;;;4.07;1.90;;;;;;;;;;5016907;28;20018;-73
2023/04/30 13:20:24;;;;;;;5.63;2.10;;;;;;;;;;5014410;28;20036;-73
2023/04/30 13:22:50;;;;;;;3.30;2.03;;;;;;;;;;5014537;28;20037;-73
2023/04/30 13:25:16;;;;;;;8.20;3.05;;;;;;;;;;5014523;28;20392;-73
2023/04/30 13:27:42;;;;;;;9.07;2.45;;;;;;;;;;4996465;28;20025;-74
2023/04/30 13:30:09;;;;;;;6.57;2.70;;;;;;;;;;5014307;28;20022;-73
2023/04/30 13:32:36;;;;;;;4.07;1.92;;;;;;;;;;4996713;28;20092;-74
2023/04/30 13:35:02;;;;;;;7.22;2.28;;;;;;;;;;5014590;28;20018;-72
2023/04/30 13:37:30;;;;;;;4.57;2.03;;;;;;;;;;5014154;28;20037;-74
2023/04/30 13:39:56;;;;;;;5.35;2.00;;;;;;;;;;5014206;28;20022;-74
2023/04/30 13:42:23;;;;;;;5.63;2.05;;;;;;;;;;5014224;28;20041;-74
2023/04/30 13:44:49;;;;;;;6.15;2.55;;;;;;;;;;5013797;28;20026;-73
2023/04/30 13:47:15;;;;;;;4.38;1.98;;;;;;;;;;5013696;28;20104;-72
2023/04/30 13:49:41;;;;;;;5.70;1.92;;;;;;;;;;5013381;28;20050;-72
2023/04/30 13:52:07;;;;;;;5.65;2.22;;;;;;;;;;5013571;28;20018;-73
2023/04/30 13:54:34;;;;;;;6.63;2.45;;;;;;;;;;5013917;28;20072;-73
2023/04/30 13:57:00;;;;;;;4.53;2.00;;;;;;;;;;5013907;28;20076;-73
2023/04/30 13:59:26;;;;;;;3.25;2.05;;;;;;;;;;5012784;28;20100;-73
2023/04/30 14:01:52;;;;;;;4.93;1.90;;;;;;;;;;5013345;28;20076;-73
2023/04/30 14:04:18;;;;;;;6.00;2.28;;;;;;;;;;5013673;28;20022;-73
2023/04/30 14:06:44;;;;;;;5.60;2.17;;;;;;;;;;5013416;28;20025;-74
2023/04/30 14:09:10;;;;;;;4.72;2.20;;;;;;;;;;5001906;28;20030;-73
2023/04/30 14:11:36;;;;;;;6.82;1.77;;;;;;;;;;5012432;28;20026;-73
2023/04/30 14:14:02;;;;;;;5.03;2.00;;;;;;;;;;5013292;28;20107;-73
2023/04/30 14:16:29;;;;;;;7.53;2.10;;;;;;;;;;5013156;28;20522;-72
2023/04/30 14:18:55;;;;;;;5.97;2.20;;;;;;;;;;5013495;28;20018;-74
2023/04/30 14:21:21;;;;;;;9.43;2.30;;;;;;;;;;5012746;28;20057;-73
2023/04/30 14:23:47;;;;;;;8.00;2.08;;;;;;;;;;5013352;28;20103;-74
2023/04/30 14:26:13;;;;;;;6.05;1.92;;;;;;;;;;5013132;28;20026;-74
2023/04/30 14:28:39;;;;;;;4.53;1.73;;;;;;;;;;5012974;28;20048;-73
2023/04/30 14:31:05;;;;;;;5.55;1.88;;;;;;;;;;5013186;28;20026;-73
2023/04/30 14:33:31;;;;;;;4.25;2.08;;;;;;;;;;5012633;28;20394;-73
2023/04/30 14:36:00;;;;;;;7.00;2.70;;;;;;;;;;4995055;28;20021;-73